createdAt,value
2023-03-13T00:00:16.619Z,8.46
2023-03-13T00:01:17.143Z,8.47
2023-03-13T00:02:16.753Z,8.46
2023-03-13T00:03:16.338Z,8.43
2023-03-13T00:04:16.925Z,8.40
2023-03-13T00:05:16.471Z,8.40
2023-03-13T00:06:17.096Z,8.40
2023-03-13T00:07:16.599Z,8.36
2023-03-13T00:08:17.118Z,8.37
2023-03-13T00:09:16.628Z,8.36
2023-03-13T00:10:17.192Z,8.33
2023-03-13T00:11:16.699Z,8.29
2023-03-13T00:12:16.768Z,8.29
2023-03-13T00:13:17.307Z,8.29
2023-03-13T00:14:16.782Z,8.26
2023-03-13T00:15:17.272Z,8.25
2023-03-13T00:16:16.938Z,8.23
2023-03-13T00:17:16.542Z,8.23
2023-03-13T00:18:17.041Z,8.19
2023-03-13T00:19:16.535Z,8.20
2023-03-13T00:20:17.037Z,8.20
2023-03-13T00:21:16.552Z,8.20
2023-03-13T00:22:17.235Z,8.18
2023-03-13T00:23:16.765Z,8.19
2023-03-13T00:24:17.245Z,8.18
2023-03-13T00:25:16.722Z,8.18
2023-03-13T00:26:17.279Z,8.18
2023-03-13T00:27:16.776Z,8.15
2023-03-13T00:28:17.280Z,8.15
2023-03-13T00:29:16.750Z,8.11
2023-03-13T00:30:17.241Z,8.09
2023-03-13T00:31:16.840Z,8.12
2023-03-13T00:32:16.732Z,8.13
2023-03-13T00:33:16.303Z,8.09
2023-03-13T00:34:16.819Z,8.11
2023-03-13T00:35:16.307Z,8.08
2023-03-13T00:36:16.808Z,8.08
2023-03-13T00:37:16.303Z,8.09
2023-03-13T00:38:16.829Z,8.08
2023-03-13T00:39:16.320Z,8.08
2023-03-13T00:40:16.822Z,8.09
2023-03-13T00:41:16.349Z,8.12
2023-03-13T00:42:17.025Z,8.11
2023-03-13T00:43:16.510Z,8.12
2023-03-13T00:44:17.017Z,8.08
2023-03-13T00:45:16.515Z,8.06
2023-03-13T00:46:17.105Z,8.04
2023-03-13T00:47:16.729Z,8.06
2023-03-13T00:48:17.210Z,8.05
2023-03-13T00:49:16.712Z,8.05
2023-03-13T00:50:17.188Z,8.06
2023-03-13T00:51:16.694Z,8.08
2023-03-13T00:52:16.796Z,8.05
2023-03-13T00:53:16.297Z,8.08
2023-03-13T00:54:16.794Z,8.06
2023-03-13T00:55:16.370Z,8.06
2023-03-13T01:14:16.503Z,8.05
2023-03-13T01:15:17.050Z,8.09
2023-03-13T01:16:16.802Z,8.09
2023-03-13T01:17:16.499Z,8.12
2023-03-13T01:18:16.996Z,8.09
2023-03-13T01:19:16.547Z,8.08
2023-03-13T01:20:17.143Z,8.08
2023-03-13T01:21:16.647Z,8.06
2023-03-13T01:22:17.043Z,8.08
2023-03-13T01:23:16.567Z,8.06
2023-03-13T01:26:16.955Z,8.05
2023-03-13T01:27:16.500Z,8.06
2023-03-13T01:28:17.039Z,8.06
2023-03-13T01:29:16.586Z,8.04
2023-03-13T01:30:17.148Z,8.06
2023-03-13T01:40:17.217Z,8.00
2023-03-13T01:41:16.733Z,8.00
2023-03-13T01:42:16.966Z,7.98
2023-03-13T01:43:26.016Z,7.95
2023-03-13T01:44:16.983Z,7.98
2023-03-13T01:45:16.501Z,7.98
2023-03-13T01:46:17.039Z,7.95
2023-03-13T02:29:16.717Z,7.88
2023-03-13T02:30:17.216Z,7.88
2023-03-13T02:31:16.753Z,7.94
2023-03-13T02:32:17.376Z,7.91
2023-03-13T02:33:16.997Z,7.90
2023-03-13T02:34:16.516Z,7.88
2023-03-13T02:35:17.065Z,7.90
2023-03-13T02:36:16.637Z,7.90
2023-03-13T02:37:17.147Z,7.91
2023-03-13T02:38:16.640Z,7.92
2023-03-13T02:39:17.116Z,7.92
2023-03-13T02:40:16.626Z,7.98
2023-03-13T02:41:17.130Z,7.97
2023-03-13T02:42:16.381Z,7.97
2023-03-13T02:44:16.976Z,7.94
2023-03-13T02:45:16.513Z,7.95
2023-03-13T02:46:17.063Z,7.95
2023-03-13T02:47:16.638Z,7.94
2023-03-13T02:48:17.180Z,7.98
2023-03-13T02:49:16.665Z,7.97
2023-03-13T02:50:17.170Z,7.94
2023-03-13T02:51:16.645Z,7.94
2023-03-13T02:52:16.450Z,7.94
2023-03-13T02:53:16.918Z,7.92
2023-03-13T02:54:16.420Z,7.92
2023-03-13T02:55:16.918Z,7.94
2023-03-13T02:56:16.428Z,7.92
2023-03-13T02:57:16.933Z,7.92
2023-03-13T02:58:16.426Z,7.95
2023-03-13T02:59:16.910Z,7.97
2023-03-13T03:00:16.392Z,8.00
2023-03-13T03:01:16.960Z,8.02
2023-03-13T03:02:17.071Z,8.01
2023-03-13T03:03:16.611Z,8.00
2023-03-13T03:04:17.162Z,8.04
2023-03-13T03:05:16.750Z,8.04
2023-03-13T03:06:17.233Z,8.01
2023-03-13T03:07:16.775Z,8.00
2023-03-13T03:08:17.293Z,8.00
2023-03-13T03:09:16.902Z,8.02
2023-03-13T03:10:16.411Z,7.98
2023-03-13T03:11:16.916Z,7.97
2023-03-13T03:12:16.904Z,7.95
2023-03-13T03:13:16.419Z,8.02
2023-03-13T03:14:16.936Z,8.00
2023-03-13T03:15:16.427Z,8.02
2023-03-13T03:16:16.944Z,8.01
2023-03-13T03:17:16.505Z,8.02
2023-03-13T03:18:17.041Z,7.98
2023-03-13T03:19:16.524Z,8.01
2023-03-13T03:20:17.000Z,8.01
2023-03-13T03:21:16.515Z,8.01
2023-03-13T03:22:17.009Z,8.04
2023-03-13T03:23:16.505Z,8.04
2023-03-13T03:24:17.010Z,8.08
2023-03-13T03:25:16.509Z,8.06
2023-03-13T03:26:17.038Z,8.04
2023-03-13T03:27:16.513Z,8.08
2023-03-13T03:28:16.993Z,8.05
2023-03-13T03:29:16.507Z,8.09
2023-03-13T03:30:17.015Z,8.05
2023-03-13T03:31:16.578Z,8.05
2023-03-13T03:32:16.678Z,8.06
2023-03-13T03:33:17.249Z,8.09
2023-03-13T03:34:16.772Z,8.11
2023-03-13T03:35:17.254Z,8.06
2023-03-13T03:36:16.742Z,8.11
2023-03-13T03:37:17.254Z,8.06
2023-03-13T03:38:16.750Z,8.05
2023-03-13T03:39:17.265Z,8.08
2023-03-13T03:40:16.790Z,8.09
2023-03-13T03:41:16.322Z,8.08
2023-03-13T03:42:16.392Z,8.05
2023-03-13T03:43:16.891Z,8.06
2023-03-13T03:44:16.421Z,8.06
2023-03-13T03:45:16.907Z,8.11
2023-03-13T03:46:16.425Z,8.15
2023-03-13T03:47:17.056Z,8.15
2023-03-13T03:48:16.719Z,8.18
2023-03-13T03:49:17.221Z,8.15
2023-03-13T03:50:16.708Z,8.15
2023-03-13T03:51:17.198Z,8.11
2023-03-13T03:52:16.329Z,8.12
2023-03-13T03:53:16.824Z,8.13
2023-03-13T03:54:16.327Z,8.15
2023-03-13T03:55:16.852Z,8.16
2023-03-13T03:56:16.349Z,8.18
2023-03-13T03:57:16.833Z,8.19
2023-03-13T03:58:16.359Z,8.19
2023-03-13T03:59:16.859Z,8.20
2023-03-13T04:00:16.405Z,8.16
2023-03-13T04:01:16.923Z,8.18
2023-03-13T04:02:17.009Z,8.23
2023-03-13T04:03:16.636Z,8.22
2023-03-13T04:04:16.296Z,8.22
2023-03-13T04:05:16.796Z,8.20
2023-03-13T04:06:17.333Z,8.20
2023-03-13T04:07:16.854Z,8.23
2023-03-13T04:08:16.388Z,8.22
2023-03-13T04:09:16.910Z,8.26
2023-03-13T04:10:16.421Z,8.23
2023-03-13T04:11:16.965Z,8.23
2023-03-13T04:12:17.013Z,8.23
2023-03-13T04:13:16.629Z,8.28
2023-03-13T04:14:17.128Z,8.28
2023-03-13T04:15:16.631Z,8.28
2023-03-13T04:16:17.180Z,8.30
2023-03-13T04:17:16.893Z,8.29
2023-03-13T04:18:16.432Z,8.29
2023-03-13T04:19:16.946Z,8.32
2023-03-13T04:20:16.455Z,8.30
2023-03-13T04:21:16.962Z,8.32
2023-03-13T04:22:17.111Z,8.30
2023-03-13T04:23:16.639Z,8.36
2023-03-13T04:24:17.132Z,8.35
2023-03-13T04:25:16.651Z,8.35
2023-03-13T04:26:16.329Z,8.33
2023-03-13T04:27:16.807Z,8.30
2023-03-13T04:28:16.297Z,8.39
2023-03-13T04:29:16.794Z,8.39
2023-03-13T04:30:18.681Z,8.37
2023-03-13T04:31:17.344Z,8.37
2023-03-13T04:32:16.880Z,8.35
2023-03-13T04:33:16.410Z,8.40
2023-03-13T04:34:16.909Z,8.37
2023-03-13T04:35:16.492Z,8.36
2023-03-13T04:36:17.235Z,8.39
2023-03-13T04:37:16.839Z,8.36
2023-03-13T04:38:16.339Z,8.37
2023-03-13T04:39:16.843Z,8.40
2023-03-13T04:40:16.341Z,8.44
2023-03-13T04:41:16.847Z,8.44
2023-03-13T04:42:16.947Z,8.46
2023-03-13T04:43:16.421Z,8.47
2023-03-13T04:44:16.925Z,8.46
2023-03-13T04:45:16.427Z,8.44
2023-03-13T04:46:16.935Z,8.50
2023-03-13T04:47:16.523Z,8.50
2023-03-13T04:48:17.028Z,8.48
2023-03-13T04:49:16.547Z,8.53
2023-03-13T04:51:17.162Z,8.50
2023-03-13T04:52:16.629Z,8.50
2023-03-13T04:53:17.094Z,8.47
2023-03-13T04:54:16.591Z,8.50
2023-03-13T04:55:17.050Z,8.51
2023-03-13T04:56:16.557Z,8.51
2023-03-13T04:57:17.077Z,8.51
2023-03-13T04:58:16.645Z,8.50
2023-03-13T04:59:17.148Z,8.47
2023-03-13T05:00:16.657Z,8.48
2023-03-13T05:01:17.173Z,8.50
2023-03-13T05:02:17.251Z,8.51
2023-03-13T05:03:16.742Z,8.53
2023-03-13T05:04:17.247Z,8.53
2023-03-13T05:05:16.830Z,8.51
2023-03-13T05:06:16.450Z,8.51
2023-03-13T05:07:16.946Z,8.50
2023-03-13T05:08:16.419Z,8.46
2023-03-13T05:09:16.918Z,8.48
2023-03-13T05:10:16.436Z,8.50
2023-03-13T05:11:16.924Z,8.44
2023-03-13T05:12:17.028Z,8.43
2023-03-13T05:13:16.511Z,8.44
2023-03-13T05:14:17.005Z,8.46
2023-03-13T05:15:16.505Z,8.47
2023-03-13T05:16:17.152Z,8.47
2023-03-13T05:17:16.956Z,8.43
2023-03-13T05:18:16.453Z,8.44
2023-03-13T05:19:16.962Z,8.43
2023-03-13T05:20:16.484Z,8.41
2023-03-13T05:21:16.959Z,8.40
2023-03-13T05:22:17.080Z,8.39
2023-03-13T05:23:16.568Z,8.36
2023-03-13T05:24:17.067Z,8.39
2023-03-13T05:25:16.568Z,8.39
2023-03-13T05:26:17.060Z,8.39
2023-03-13T05:27:16.593Z,8.40
2023-03-13T05:29:17.150Z,8.33
2023-03-13T05:30:16.631Z,8.30
2023-03-13T05:32:17.310Z,8.28
2023-03-13T05:33:16.830Z,8.29
2023-03-13T05:34:16.328Z,8.28
2023-03-13T05:35:16.855Z,8.29
2023-03-13T05:36:16.780Z,8.28
2023-03-13T05:37:16.455Z,8.25
2023-03-13T05:38:16.935Z,8.26
2023-03-13T05:39:16.440Z,8.22
2023-03-13T05:40:16.983Z,8.22
2023-03-13T05:41:16.468Z,8.19
2023-03-13T05:42:16.582Z,8.16
2023-03-13T05:43:17.082Z,8.18
2023-03-13T05:44:16.608Z,8.19
2023-03-13T05:45:17.079Z,8.18
2023-03-13T05:46:16.591Z,8.18
2023-03-13T05:47:17.183Z,8.18
2023-03-13T05:48:16.671Z,8.15
2023-03-13T05:49:16.439Z,8.18
2023-03-13T05:50:16.953Z,8.15
2023-03-13T05:51:16.434Z,8.15
2023-03-13T05:52:16.573Z,8.11
2023-03-13T05:53:17.051Z,8.12
2023-03-13T05:54:16.576Z,8.11
2023-03-13T05:55:17.074Z,8.11
2023-03-13T05:56:16.575Z,8.12
2023-03-13T05:57:17.076Z,8.09
2023-03-13T05:58:16.566Z,8.09
2023-03-13T05:59:17.095Z,8.06
2023-03-13T06:00:16.580Z,8.06
2023-03-13T06:01:17.058Z,8.08
2023-03-13T06:02:17.192Z,8.06
2023-03-13T06:03:16.656Z,8.05
2023-03-13T06:04:17.239Z,8.06
2023-03-13T06:05:16.926Z,8.06
2023-03-13T06:06:16.428Z,8.06
2023-03-13T06:07:16.963Z,8.06
2023-03-13T06:08:16.473Z,8.05
2023-03-13T06:09:16.998Z,8.06
2023-03-13T06:10:16.482Z,8.05
2023-03-13T06:11:16.977Z,8.04
2023-03-13T06:12:17.131Z,8.02
2023-03-13T06:13:19.955Z,8.02
2023-03-13T06:14:16.925Z,8.04
2023-03-13T06:15:16.475Z,8.04
2023-03-13T06:16:17.008Z,8.04
2023-03-13T06:17:16.557Z,8.01
2023-03-13T06:18:17.100Z,8.04
2023-03-13T06:19:16.664Z,8.02
2023-03-13T06:20:17.186Z,8.01
2023-03-13T06:22:17.032Z,8.01
2023-03-13T06:23:16.562Z,8.00
2023-03-13T06:24:17.103Z,8.01
2023-03-13T06:25:16.610Z,8.01
2023-03-13T06:26:17.150Z,8.01
2023-03-13T06:27:16.656Z,8.05
2023-03-13T06:28:17.144Z,8.05
2023-03-13T06:29:16.657Z,8.05
2023-03-13T06:30:17.145Z,8.12
2023-03-13T06:31:16.669Z,8.13
2023-03-13T06:32:16.553Z,8.13
2023-03-13T06:33:17.371Z,8.19
2023-03-13T06:35:17.105Z,8.16
2023-03-13T06:36:16.635Z,8.18
2023-03-13T06:37:17.244Z,8.15
2023-03-13T06:38:16.771Z,8.13
2023-03-13T06:39:17.287Z,8.19
2023-03-13T06:40:16.800Z,8.18
2023-03-13T06:41:17.278Z,8.19
2023-03-13T06:42:16.446Z,8.19
2023-03-13T06:43:16.962Z,8.22
2023-03-13T06:44:16.472Z,8.22
2023-03-13T06:45:16.969Z,8.25
2023-03-13T06:46:16.512Z,8.25
2023-03-13T06:47:17.173Z,8.28
2023-03-13T06:48:16.768Z,8.30
2023-03-13T06:49:17.286Z,8.30
2023-03-13T06:50:16.768Z,8.32
2023-03-13T06:51:17.294Z,8.36
2023-03-13T06:52:17.053Z,8.37
2023-03-13T06:53:16.653Z,8.36
2023-03-13T06:54:17.129Z,8.37
2023-03-13T06:55:16.614Z,8.37
2023-03-13T06:56:17.104Z,8.41
2023-03-13T06:57:16.585Z,8.44
2023-03-13T06:58:30.880Z,8.47
2023-03-13T06:59:17.302Z,8.48
2023-03-13T07:00:16.790Z,8.51
2023-03-13T07:01:17.334Z,8.51
2023-03-13T07:02:16.417Z,8.56
2023-03-13T07:03:16.931Z,8.57
2023-03-13T07:04:16.527Z,8.56
2023-03-13T07:05:17.214Z,8.63
2023-03-13T07:06:16.922Z,8.63
2023-03-13T07:07:25.977Z,8.61
2023-03-13T07:08:16.628Z,8.61
2023-03-13T07:09:17.124Z,8.63
2023-03-13T07:10:16.618Z,8.67
2023-03-13T07:11:17.115Z,8.65
2023-03-13T07:12:17.292Z,8.68
2023-03-13T07:14:17.724Z,8.72
2023-03-13T07:15:16.510Z,8.75
2023-03-13T07:16:17.041Z,8.76
2023-03-13T07:17:16.629Z,8.76
2023-03-13T07:18:17.140Z,8.75
2023-03-13T07:19:16.805Z,8.74
2023-03-13T07:20:17.926Z,8.79
2023-03-13T07:21:16.562Z,8.79
2023-03-13T07:22:17.219Z,8.78
2023-03-13T07:23:16.802Z,8.82
2023-03-13T07:24:17.321Z,8.85
2023-03-13T07:25:16.959Z,8.87
2023-03-13T07:26:16.514Z,8.87
2023-03-13T07:27:17.116Z,8.88
2023-03-13T07:28:16.831Z,8.91
2023-03-13T07:29:16.355Z,8.92
2023-03-13T07:30:16.845Z,8.95
2023-03-13T07:31:16.491Z,8.98
2023-03-13T07:32:16.606Z,8.99
2023-03-13T07:33:17.188Z,9.03
2023-03-13T07:34:16.691Z,9.02
2023-03-13T07:35:17.185Z,9.06
2023-03-13T07:36:16.801Z,9.06
2023-03-13T07:37:16.421Z,9.08
2023-03-13T07:38:16.915Z,9.10
2023-03-13T07:39:16.455Z,9.12
2023-03-13T07:40:17.003Z,9.13
2023-03-13T07:41:16.535Z,9.16
2023-03-13T07:42:16.613Z,9.16
2023-03-13T07:43:17.151Z,9.22
2023-03-13T07:44:16.658Z,9.23
2023-03-13T07:45:17.195Z,9.26
2023-03-13T07:46:16.781Z,9.25
2023-03-13T07:47:16.457Z,9.29
2023-03-13T07:48:16.994Z,9.29
2023-03-13T07:49:16.494Z,9.31
2023-03-13T07:50:17.013Z,9.31
2023-03-13T07:51:16.625Z,9.37
2023-03-13T07:52:16.628Z,9.38
2023-03-13T07:53:17.220Z,9.46
2023-03-13T07:54:16.761Z,9.48
2023-03-13T07:55:17.264Z,9.50
2023-03-13T07:56:16.729Z,9.53
2023-03-13T07:57:17.663Z,9.55
2023-03-13T07:58:17.230Z,9.61
2023-03-13T07:59:16.729Z,9.61
2023-03-13T08:00:17.256Z,9.65
2023-03-13T08:01:16.775Z,9.71
2023-03-13T08:02:17.056Z,9.72
2023-03-13T08:03:16.818Z,9.75
2023-03-13T08:04:16.367Z,9.81
2023-03-13T08:05:16.859Z,9.81
2023-03-13T08:06:16.375Z,9.85
2023-03-13T08:07:16.876Z,9.86
2023-03-13T08:08:16.354Z,9.88
2023-03-13T08:09:16.903Z,9.89
2023-03-13T08:10:16.361Z,9.92
2023-03-13T08:11:16.843Z,9.99
2023-03-13T08:12:17.030Z,9.99
2023-03-13T08:13:16.514Z,10.02
2023-03-13T08:14:17.019Z,9.99
2023-03-13T08:15:16.519Z,10.02
2023-03-13T08:16:17.068Z,10.08
2023-03-13T08:17:16.651Z,10.08
2023-03-13T08:18:17.156Z,10.06
2023-03-13T08:20:16.724Z,10.06
2023-03-13T08:21:17.202Z,10.09
2023-03-13T08:22:16.454Z,10.10
2023-03-13T08:23:16.962Z,10.12
2023-03-13T08:24:16.495Z,10.13
2023-03-13T08:25:17.051Z,10.16
2023-03-13T08:26:16.598Z,10.19
2023-03-13T08:27:17.132Z,10.26
2023-03-13T08:28:16.642Z,10.26
2023-03-13T08:29:17.131Z,10.27
2023-03-13T08:30:16.607Z,10.30
2023-03-13T08:31:17.199Z,10.30
2023-03-13T08:32:17.321Z,10.36
2023-03-13T08:33:16.977Z,10.37
2023-03-13T08:34:16.474Z,10.43
2023-03-13T08:35:17.053Z,10.43
2023-03-13T08:36:16.568Z,10.44
2023-03-13T08:37:17.087Z,10.49
2023-03-13T08:38:16.597Z,10.49
2023-03-13T08:39:17.169Z,10.51
2023-03-13T08:40:16.721Z,10.55
2023-03-13T08:41:17.213Z,10.55
2023-03-13T08:42:16.378Z,10.64
2023-03-13T08:43:16.842Z,10.65
2023-03-13T08:44:16.341Z,10.67
2023-03-13T08:45:16.890Z,10.71
2023-03-13T08:46:18.489Z,10.75
2023-03-13T08:47:17.277Z,10.81
2023-03-13T08:48:16.807Z,10.82
2023-03-13T08:49:16.304Z,10.81
2023-03-13T08:50:16.819Z,10.85
2023-03-13T08:51:16.301Z,10.86
2023-03-13T08:52:16.440Z,10.95
2023-03-13T08:53:16.930Z,10.99
2023-03-13T08:54:16.437Z,10.98
2023-03-13T08:55:16.944Z,11.07
2023-03-13T08:56:16.451Z,11.07
2023-03-13T08:57:16.938Z,11.07
2023-03-13T08:58:16.431Z,11.10
2023-03-13T08:59:16.928Z,11.14
2023-03-13T09:00:16.437Z,11.13
2023-03-13T09:01:16.943Z,11.18
2023-03-13T09:02:16.729Z,11.21
2023-03-13T09:03:17.365Z,11.20
2023-03-13T09:04:17.015Z,11.23
2023-03-13T09:05:16.508Z,11.31
2023-03-13T09:06:17.043Z,11.37
2023-03-13T09:07:16.550Z,11.38
2023-03-13T09:08:17.059Z,11.47
2023-03-13T09:09:16.556Z,11.47
2023-03-13T09:10:17.047Z,11.44
2023-03-13T09:11:16.564Z,11.47
2023-03-13T09:12:29.885Z,11.54
2023-03-13T09:13:16.711Z,11.59
2023-03-13T09:14:17.199Z,11.61
2023-03-13T09:15:16.711Z,11.72
2023-03-13T09:16:17.269Z,11.73
2023-03-13T09:17:17.023Z,11.76
2023-03-13T09:18:16.550Z,11.89
2023-03-13T09:19:17.096Z,11.99
2023-03-13T09:20:16.776Z,12.03
2023-03-13T09:21:17.262Z,12.08
2023-03-13T09:22:16.429Z,12.07
2023-03-13T09:23:16.890Z,12.14
2023-03-13T09:24:16.381Z,12.14
2023-03-13T09:25:16.878Z,12.13
2023-03-13T09:26:16.352Z,12.16
2023-03-13T09:27:16.855Z,12.20
2023-03-13T09:28:16.362Z,12.20
2023-03-13T09:29:16.888Z,12.23
2023-03-13T09:30:16.417Z,12.24
2023-03-13T09:31:16.987Z,12.27
2023-03-13T09:32:17.032Z,12.28
2023-03-13T09:33:16.645Z,12.37
2023-03-13T09:34:17.155Z,12.40
2023-03-13T09:35:16.694Z,12.45
2023-03-13T09:36:19.223Z,12.58
2023-03-13T09:37:17.086Z,12.59
2023-03-13T09:38:16.564Z,12.62
2023-03-13T09:39:17.050Z,12.58
2023-03-13T09:40:16.535Z,12.62
2023-03-13T09:41:17.052Z,12.59
2023-03-13T09:42:17.180Z,12.62
2023-03-13T09:43:16.673Z,12.65
2023-03-13T09:44:17.166Z,12.73
2023-03-13T09:45:16.709Z,12.80
2023-03-13T09:46:17.316Z,12.93
2023-03-13T09:47:16.897Z,12.93
2023-03-13T09:48:16.382Z,12.94
2023-03-13T09:49:18.384Z,12.88
2023-03-13T09:50:16.989Z,12.94
2023-03-13T09:51:16.479Z,13.03
2023-03-13T09:52:17.019Z,13.03
2023-03-13T09:53:16.510Z,13.03
2023-03-13T09:54:17.004Z,13.03
2023-03-13T09:55:16.510Z,13.00
2023-03-13T09:56:17.013Z,12.94
2023-03-13T09:57:16.539Z,12.94
2023-03-13T09:58:17.088Z,12.93
2023-03-13T09:59:16.558Z,13.03
2023-03-13T10:00:17.051Z,13.06
2023-03-13T10:01:16.565Z,13.07
2023-03-13T10:02:16.636Z,13.06
2023-03-13T10:03:16.331Z,13.06
2023-03-13T10:04:16.849Z,13.10
2023-03-13T10:05:16.433Z,13.14
2023-03-13T10:06:16.944Z,13.14
2023-03-13T10:07:16.466Z,13.18
2023-03-13T10:08:17.022Z,13.22
2023-03-13T10:09:16.518Z,13.22
2023-03-13T10:10:17.036Z,13.28
2023-03-13T10:11:16.515Z,13.27
2023-03-13T10:12:16.483Z,13.37
2023-03-13T10:13:16.952Z,13.37
2023-03-13T10:14:16.451Z,13.37
2023-03-13T10:15:16.954Z,13.34
2023-03-13T10:16:18.958Z,13.35
2023-03-13T10:17:17.064Z,13.45
2023-03-13T10:18:16.595Z,13.43
2023-03-13T10:19:17.100Z,13.45
2023-03-13T10:20:16.599Z,13.48
2023-03-13T10:21:17.085Z,13.46
2023-03-13T10:22:17.260Z,13.48
2023-03-13T10:24:16.846Z,13.46
2023-03-13T10:25:16.312Z,13.45
2023-03-13T10:26:16.789Z,13.50
2023-03-13T10:27:17.254Z,13.42
2023-03-13T10:28:16.730Z,13.39
2023-03-13T10:29:17.291Z,13.37
2023-03-13T10:30:16.792Z,13.34
2023-03-13T10:31:17.317Z,13.38
2023-03-13T10:32:16.627Z,13.39
2023-03-13T10:33:17.245Z,13.43
2023-03-13T10:34:16.783Z,13.43
2023-03-13T10:35:17.284Z,13.42
2023-03-13T10:36:16.847Z,13.42
2023-03-13T10:37:16.459Z,13.39
2023-03-13T10:38:16.960Z,13.39
2023-03-13T10:39:16.449Z,13.39
2023-03-13T10:40:16.981Z,13.39
2023-03-13T10:41:16.520Z,13.38
2023-03-13T10:42:16.553Z,13.41
2023-03-13T10:43:17.041Z,13.30
2023-03-13T10:44:16.514Z,13.32
2023-03-13T10:45:17.040Z,13.32
2023-03-13T10:46:16.643Z,13.31
2023-03-13T10:47:17.231Z,13.37
2023-03-13T10:48:16.752Z,13.37
2023-03-13T10:49:17.236Z,13.32
2023-03-13T10:50:16.773Z,13.34
2023-03-13T10:51:17.245Z,13.30
2023-03-13T10:52:16.343Z,13.32
2023-03-13T10:53:16.822Z,13.34
2023-03-13T10:54:16.309Z,13.35
2023-03-13T10:55:16.883Z,13.37
2023-03-13T10:56:17.237Z,13.37
2023-03-13T10:57:16.773Z,13.35
2023-03-13T10:58:17.242Z,13.35
2023-03-13T10:59:16.760Z,13.39
2023-03-13T11:00:17.261Z,13.43
2023-03-13T11:01:16.769Z,13.43
2023-03-13T11:02:16.903Z,13.41
2023-03-13T11:03:16.537Z,13.38
2023-03-13T11:04:16.405Z,13.34
2023-03-13T11:05:16.935Z,13.35
2023-03-13T11:06:16.397Z,13.35
2023-03-13T11:07:16.868Z,13.37
2023-03-13T11:08:16.442Z,13.37
2023-03-13T11:09:17.004Z,13.41
2023-03-13T11:10:16.515Z,13.41
2023-03-13T11:11:17.027Z,13.45
2023-03-13T11:12:17.159Z,13.55
2023-03-13T11:13:18.302Z,13.69
2023-03-13T11:14:16.608Z,13.82
2023-03-13T11:15:17.186Z,13.87
2023-03-13T11:16:16.951Z,13.97
2023-03-13T11:17:16.530Z,13.98
2023-03-13T11:18:17.033Z,13.97
2023-03-13T11:19:16.537Z,13.98
2023-03-13T11:20:17.053Z,14.01
2023-03-13T11:21:18.478Z,14.01
2023-03-13T11:22:17.328Z,14.00
2023-03-13T11:23:16.923Z,14.05
2023-03-13T11:24:16.435Z,14.08
2023-03-13T11:25:17.888Z,14.10
2023-03-13T11:26:16.485Z,14.15
2023-03-13T11:27:17.006Z,14.11
2023-03-13T11:28:16.542Z,14.20
2023-03-13T11:29:17.055Z,14.21
2023-03-13T11:30:16.555Z,14.24
2023-03-13T11:31:17.064Z,14.25
2023-03-13T11:32:17.429Z,14.29
2023-03-13T11:33:17.050Z,14.29
2023-03-13T11:34:16.595Z,14.28
2023-03-13T11:35:17.087Z,14.28
2023-03-13T11:36:16.659Z,14.25
2023-03-13T11:37:17.285Z,14.18
2023-03-13T11:38:16.807Z,14.14
2023-03-13T11:39:16.292Z,14.11
2023-03-13T11:40:16.918Z,14.11
2023-03-13T11:41:16.611Z,14.08
2023-03-13T11:42:16.645Z,14.05
2023-03-13T11:43:24.851Z,14.01
2023-03-13T11:44:16.611Z,14.00
2023-03-13T11:45:17.136Z,13.98
2023-03-13T11:46:16.726Z,14.00
2023-03-13T11:47:16.349Z,13.98
2023-03-13T11:48:16.809Z,13.93
2023-03-13T11:49:17.330Z,13.94
2023-03-13T11:50:16.811Z,13.97
2023-03-13T11:51:16.382Z,13.94
2023-03-13T11:52:16.460Z,13.93
2023-03-13T11:53:17.003Z,13.90
2023-03-13T11:54:16.695Z,13.87
2023-03-13T11:55:17.210Z,13.89
2023-03-13T11:56:16.704Z,13.90
2023-03-13T11:57:17.236Z,13.89
2023-03-13T11:58:16.733Z,13.90
2023-03-13T11:59:17.222Z,13.92
2023-03-13T12:00:16.698Z,13.90
2023-03-13T12:01:17.248Z,13.96
2023-03-13T12:02:16.374Z,13.93
2023-03-13T12:03:17.258Z,13.92
2023-03-13T12:04:16.828Z,13.93
2023-03-13T12:05:16.438Z,13.96
2023-03-13T12:06:27.503Z,13.97
2023-03-13T12:07:16.333Z,14.03
2023-03-13T12:08:16.838Z,14.03
2023-03-13T12:09:16.328Z,14.07
2023-03-13T12:10:16.854Z,14.11
2023-03-13T12:11:16.330Z,14.18
2023-03-13T12:12:16.493Z,14.29
2023-03-13T12:13:16.982Z,14.35
2023-03-13T12:14:16.492Z,14.46
2023-03-13T12:15:19.021Z,14.53
2023-03-13T12:16:16.895Z,14.60
2023-03-13T12:17:16.458Z,14.74
2023-03-13T12:18:17.044Z,14.87
2023-03-13T12:19:16.560Z,14.93
2023-03-13T12:20:17.035Z,15.01
2023-03-13T12:21:16.542Z,15.05
2023-03-13T12:22:17.053Z,15.07
2023-03-13T12:23:16.544Z,15.12
2023-03-13T12:24:17.052Z,15.14
2023-03-13T12:25:16.583Z,15.28
2023-03-13T12:26:17.197Z,15.31
2023-03-13T12:27:16.717Z,15.31
2023-03-13T12:28:17.225Z,15.38
2023-03-13T12:29:16.874Z,15.39
2023-03-13T12:30:16.350Z,15.38
2023-03-13T12:31:16.898Z,15.39
2023-03-13T12:32:17.096Z,15.35
2023-03-13T12:33:16.698Z,15.25
2023-03-13T12:34:17.216Z,15.14
2023-03-13T12:35:16.751Z,15.08
2023-03-13T12:36:17.286Z,15.07
2023-03-13T12:37:16.933Z,15.05
2023-03-13T12:38:16.416Z,15.07
2023-03-13T12:39:16.917Z,15.10
2023-03-13T12:40:16.462Z,15.11
2023-03-13T12:41:17.047Z,15.12
2023-03-13T12:42:17.050Z,15.15
2023-03-13T12:43:16.564Z,15.23
2023-03-13T12:44:17.121Z,15.34
2023-03-13T12:45:16.676Z,15.29
2023-03-13T12:46:16.382Z,15.29
2023-03-13T12:47:16.980Z,15.34
2023-03-13T12:48:16.799Z,15.45
2023-03-13T12:49:16.456Z,15.52
2023-03-13T12:50:17.004Z,15.49
2023-03-13T12:51:16.495Z,15.46
2023-03-13T12:52:17.006Z,15.49
2023-03-13T12:53:17.550Z,15.59
2023-03-13T12:54:16.427Z,15.57
2023-03-13T12:55:17.059Z,15.60
2023-03-13T12:56:16.597Z,15.57
2023-03-13T12:57:17.142Z,15.59
2023-03-13T12:58:16.711Z,15.63
2023-03-13T12:59:17.214Z,15.77
2023-03-13T13:00:16.731Z,15.92
2023-03-13T13:01:17.341Z,15.90
2023-03-13T13:02:16.363Z,15.91
2023-03-13T13:03:16.904Z,15.87
2023-03-13T13:04:16.514Z,15.87
2023-03-13T13:05:17.088Z,15.85
2023-03-13T13:06:16.592Z,15.87
2023-03-13T13:07:17.121Z,15.94
2023-03-13T13:08:16.665Z,16.00
2023-03-13T13:09:17.138Z,16.09
2023-03-13T13:10:16.627Z,16.11
2023-03-13T13:11:17.121Z,16.17
2023-03-13T13:12:17.274Z,16.17
2023-03-13T13:13:16.790Z,16.14
2023-03-13T13:14:17.314Z,16.24
2023-03-13T13:15:16.821Z,16.19
2023-03-13T13:16:16.392Z,16.21
2023-03-13T13:17:16.962Z,16.21
2023-03-13T13:18:16.540Z,16.32
2023-03-13T13:19:17.071Z,16.39
2023-03-13T13:20:16.619Z,16.47
2023-03-13T13:21:17.112Z,16.47
2023-03-13T13:22:17.263Z,16.43
2023-03-13T13:23:16.919Z,16.39
2023-03-13T13:24:16.395Z,16.45
2023-03-13T13:25:16.918Z,16.32
2023-03-13T13:26:16.406Z,16.21
2023-03-13T13:27:16.929Z,16.28
2023-03-13T13:28:16.421Z,16.45
2023-03-13T13:29:16.926Z,16.59
2023-03-13T13:30:16.446Z,16.53
2023-03-13T13:31:17.023Z,16.54
2023-03-13T13:32:17.338Z,16.57
2023-03-13T13:33:17.070Z,16.67
2023-03-13T13:34:16.556Z,16.68
2023-03-13T13:35:17.041Z,16.68
2023-03-13T13:36:16.588Z,16.67
2023-03-13T13:37:17.161Z,16.64
2023-03-13T13:38:16.650Z,16.70
2023-03-13T13:39:17.161Z,16.70
2023-03-13T13:40:16.761Z,16.66
2023-03-13T13:41:16.358Z,16.62
2023-03-13T13:42:17.278Z,16.59
2023-03-13T13:43:16.773Z,16.62
2023-03-13T13:44:17.277Z,16.70
2023-03-13T13:45:16.768Z,16.77
2023-03-13T13:46:16.348Z,16.78
2023-03-13T13:47:16.912Z,16.81
2023-03-13T13:48:16.436Z,16.83
2023-03-13T13:49:16.945Z,16.86
2023-03-13T13:50:16.435Z,16.92
2023-03-13T13:51:16.917Z,16.92
2023-03-13T13:52:17.087Z,16.88
2023-03-13T13:53:16.589Z,16.81
2023-03-13T13:54:17.097Z,16.75
2023-03-13T13:55:16.589Z,16.83
2023-03-13T13:56:17.081Z,16.87
2023-03-13T13:57:16.601Z,16.90
2023-03-13T13:58:17.122Z,16.92
2023-03-13T13:59:16.654Z,16.92
2023-03-13T14:00:17.221Z,16.92
2023-03-13T14:01:16.727Z,16.88
2023-03-13T14:02:16.985Z,16.86
2023-03-13T14:03:16.469Z,16.84
2023-03-13T14:04:16.962Z,16.84
2023-03-13T14:05:16.489Z,16.91
2023-03-13T14:06:17.184Z,16.94
2023-03-13T14:07:16.719Z,17.02
2023-03-13T14:08:17.214Z,16.92
2023-03-13T14:09:16.702Z,16.94
2023-03-13T14:10:17.979Z,16.99
2023-03-13T14:11:16.491Z,16.95
2023-03-13T14:12:16.343Z,16.98
2023-03-13T14:13:16.865Z,16.98
2023-03-13T14:14:16.413Z,16.99
2023-03-13T14:15:16.884Z,17.01
2023-03-13T14:16:16.431Z,17.01
2023-03-13T14:17:16.958Z,17.02
2023-03-13T14:18:16.448Z,17.08
2023-03-13T14:19:16.952Z,17.11
2023-03-13T14:20:16.508Z,17.14
2023-03-13T14:21:17.051Z,17.12
2023-03-13T14:22:17.104Z,17.14
2023-03-13T14:23:16.597Z,17.15
2023-03-13T14:24:17.096Z,17.14
2023-03-13T14:25:16.819Z,17.15
2023-03-13T14:26:16.339Z,17.19